sensor_id;sensor_type;location;lat;lon;timestamp;P1;durP1;ratioP1;P2;durP2;ratioP2
4642;SDS011;2334;48.710;9.622;2023-03-23T00:00:54;4.80;;;2.93;;
4642;SDS011;2334;48.710;9.622;2023-03-23T00:03:21;3.07;;;2.70;;
4642;SDS011;2334;48.710;9.622;2023-03-23T00:05:50;3.07;;;2.80;;
4642;SDS011;2334;48.710;9.622;2023-03-23T00:08:17;6.20;;;3.23;;
4642;SDS011;2334;48.710;9.622;2023-03-23T00:10:47;9.80;;;3.40;;
4642;SDS011;2334;48.710;9.622;2023-03-23T00:13:17;4.60;;;2.83;;
4642;SDS011;2334;48.710;9.622;2023-03-23T00:15:45;3.00;;;2.40;;
4642;SDS011;2334;48.710;9.622;2023-03-23T00:18:15;3.00;;;2.50;;
4642;SDS011;2334;48.710;9.622;2023-03-23T00:20:47;4.17;;;2.90;;
4642;SDS011;2334;48.710;9.622;2023-03-23T00:23:14;3.30;;;2.60;;
4642;SDS011;2334;48.710;9.622;2023-03-23T00:25:44;3.50;;;2.40;;
4642;SDS011;2334;48.710;9.622;2023-03-23T00:28:12;4.03;;;2.47;;
4642;SDS011;2334;48.710;9.622;2023-03-23T00:30:39;4.77;;;2.70;;
4642;SDS011;2334;48.710;9.622;2023-03-23T00:33:07;4.30;;;2.50;;
4642;SDS011;2334;48.710;9.622;2023-03-23T00:35:38;3.07;;;2.63;;
4642;SDS011;2334;48.710;9.622;2023-03-23T00:38:06;5.37;;;3.70;;
4642;SDS011;2334;48.710;9.622;2023-03-23T00:40:34;5.77;;;2.87;;
4642;SDS011;2334;48.710;9.622;2023-03-23T00:43:02;3.57;;;3.03;;
4642;SDS011;2334;48.710;9.622;2023-03-23T00:45:29;3.70;;;2.90;;
4642;SDS011;2334;48.710;9.622;2023-03-23T00:47:56;4.77;;;3.37;;
4642;SDS011;2334;48.710;9.622;2023-03-23T00:50:26;7.00;;;3.00;;
4642;SDS011;2334;48.710;9.622;2023-03-23T00:52:55;7.17;;;3.30;;
4642;SDS011;2334;48.710;9.622;2023-03-23T00:55:23;5.20;;;2.90;;
4642;SDS011;2334;48.710;9.622;2023-03-23T00:57:50;7.70;;;3.43;;
4642;SDS011;2334;48.710;9.622;2023-03-23T01:00:17;5.30;;;3.70;;
4642;SDS011;2334;48.710;9.622;2023-03-23T01:02:45;5.73;;;3.50;;
4642;SDS011;2334;48.710;9.622;2023-03-23T01:05:12;3.53;;;2.67;;
4642;SDS011;2334;48.710;9.622;2023-03-23T01:07:39;6.43;;;2.33;;
4642;SDS011;2334;48.710;9.622;2023-03-23T01:10:11;3.27;;;2.73;;
4642;SDS011;2334;48.710;9.622;2023-03-23T01:12:41;5.67;;;2.33;;
4642;SDS011;2334;48.710;9.622;2023-03-23T01:15:09;5.43;;;3.87;;
4642;SDS011;2334;48.710;9.622;2023-03-23T01:17:39;3.43;;;3.03;;
4642;SDS011;2334;48.710;9.622;2023-03-23T01:20:07;4.43;;;3.10;;
4642;SDS011;2334;48.710;9.622;2023-03-23T01:22:34;5.60;;;2.67;;
4642;SDS011;2334;48.710;9.622;2023-03-23T01:25:01;2.87;;;2.57;;
4642;SDS011;2334;48.710;9.622;2023-03-23T01:27:30;2.80;;;2.60;;
4642;SDS011;2334;48.710;9.622;2023-03-23T01:29:57;4.80;;;3.07;;
4642;SDS011;2334;48.710;9.622;2023-03-23T01:32:24;8.83;;;3.30;;
4642;SDS011;2334;48.710;9.622;2023-03-23T01:34:51;3.80;;;2.30;;
4642;SDS011;2334;48.710;9.622;2023-03-23T01:37:18;3.60;;;3.30;;
4642;SDS011;2334;48.710;9.622;2023-03-23T01:39:50;4.37;;;2.73;;
4642;SDS011;2334;48.710;9.622;2023-03-23T01:42:18;2.97;;;2.60;;
4642;SDS011;2334;48.710;9.622;2023-03-23T01:47:55;3.17;;;2.50;;
4642;SDS011;2334;48.710;9.622;2023-03-23T01:50:31;3.47;;;2.73;;
4642;SDS011;2334;48.710;9.622;2023-03-23T01:53:02;3.20;;;2.90;;
4642;SDS011;2334;48.710;9.622;2023-03-23T01:55:33;4.20;;;2.53;;
4642;SDS011;2334;48.710;9.622;2023-03-23T01:58:03;3.10;;;2.80;;
4642;SDS011;2334;48.710;9.622;2023-03-23T02:00:32;3.20;;;2.83;;
4642;SDS011;2334;48.710;9.622;2023-03-23T02:03:03;4.87;;;2.40;;
4642;SDS011;2334;48.710;9.622;2023-03-23T02:05:32;4.07;;;2.93;;
4642;SDS011;2334;48.710;9.622;2023-03-23T02:08:03;4.40;;;2.97;;
4642;SDS011;2334;48.710;9.622;2023-03-23T02:10:34;4.00;;;2.40;;
4642;SDS011;2334;48.710;9.622;2023-03-23T02:13:02;3.13;;;2.53;;
4642;SDS011;2334;48.710;9.622;2023-03-23T02:15:32;2.67;;;2.33;;
4642;SDS011;2334;48.710;9.622;2023-03-23T02:18:08;3.10;;;2.53;;
4642;SDS011;2334;48.710;9.622;2023-03-23T02:20:52;3.07;;;2.03;;
4642;SDS011;2334;48.710;9.622;2023-03-23T02:24:08;2.70;;;2.50;;
4642;SDS011;2334;48.710;9.622;2023-03-23T02:26:50;3.77;;;2.57;;
4642;SDS011;2334;48.710;9.622;2023-03-23T02:29:28;3.00;;;2.80;;
4642;SDS011;2334;48.710;9.622;2023-03-23T02:32:10;2.27;;;2.03;;
4642;SDS011;2334;48.710;9.622;2023-03-23T02:34:49;3.07;;;2.87;;
4642;SDS011;2334;48.710;9.622;2023-03-23T02:37:19;4.07;;;2.50;;
4642;SDS011;2334;48.710;9.622;2023-03-23T02:39:51;4.47;;;2.80;;
4642;SDS011;2334;48.710;9.622;2023-03-23T02:42:23;3.23;;;2.93;;
4642;SDS011;2334;48.710;9.622;2023-03-23T02:44:53;4.10;;;2.60;;
4642;SDS011;2334;48.710;9.622;2023-03-23T02:47:23;3.53;;;2.80;;
4642;SDS011;2334;48.710;9.622;2023-03-23T02:49:55;5.53;;;3.27;;
4642;SDS011;2334;48.710;9.622;2023-03-23T02:52:25;2.73;;;2.10;;
4642;SDS011;2334;48.710;9.622;2023-03-23T02:54:55;3.20;;;3.00;;
4642;SDS011;2334;48.710;9.622;2023-03-23T02:57:24;4.03;;;2.10;;
4642;SDS011;2334;48.710;9.622;2023-03-23T02:59:53;3.53;;;2.47;;
4642;SDS011;2334;48.710;9.622;2023-03-23T03:02:21;4.87;;;3.27;;
4642;SDS011;2334;48.710;9.622;2023-03-23T03:04:52;3.40;;;3.10;;
4642;SDS011;2334;48.710;9.622;2023-03-23T03:07:30;7.43;;;3.40;;
4642;SDS011;2334;48.710;9.622;2023-03-23T03:10:04;4.27;;;3.33;;
4642;SDS011;2334;48.710;9.622;2023-03-23T03:12:36;3.23;;;2.17;;
4642;SDS011;2334;48.710;9.622;2023-03-23T03:15:15;6.30;;;2.83;;
4642;SDS011;2334;48.710;9.622;2023-03-23T03:17:51;12.70;;;3.67;;
4642;SDS011;2334;48.710;9.622;2023-03-23T03:20:26;6.53;;;4.13;;
4642;SDS011;2334;48.710;9.622;2023-03-23T03:22:54;8.60;;;3.67;;
4642;SDS011;2334;48.710;9.622;2023-03-23T03:25:23;8.30;;;4.93;;
4642;SDS011;2334;48.710;9.622;2023-03-23T03:27:52;4.37;;;3.10;;
4642;SDS011;2334;48.710;9.622;2023-03-23T03:30:22;4.30;;;3.27;;
4642;SDS011;2334;48.710;9.622;2023-03-23T03:32:55;3.53;;;2.80;;
4642;SDS011;2334;48.710;9.622;2023-03-23T03:35:26;6.63;;;3.20;;
4642;SDS011;2334;48.710;9.622;2023-03-23T03:37:54;5.10;;;3.00;;
4642;SDS011;2334;48.710;9.622;2023-03-23T03:40:22;6.80;;;3.70;;
4642;SDS011;2334;48.710;9.622;2023-03-23T03:42:49;5.50;;;3.00;;
4642;SDS011;2334;48.710;9.622;2023-03-23T03:45:18;6.30;;;2.27;;
4642;SDS011;2334;48.710;9.622;2023-03-23T03:47:45;3.33;;;2.80;;
4642;SDS011;2334;48.710;9.622;2023-03-23T03:50:12;3.13;;;2.63;;
4642;SDS011;2334;48.710;9.622;2023-03-23T03:52:41;3.20;;;2.37;;
4642;SDS011;2334;48.710;9.622;2023-03-23T03:55:08;3.77;;;2.40;;
4642;SDS011;2334;48.710;9.622;2023-03-23T03:57:37;5.23;;;2.50;;
4642;SDS011;2334;48.710;9.622;2023-03-23T04:00:07;2.80;;;2.13;;
4642;SDS011;2334;48.710;9.622;2023-03-23T04:02:39;4.00;;;2.63;;
4642;SDS011;2334;48.710;9.622;2023-03-23T04:05:07;4.40;;;2.43;;
4642;SDS011;2334;48.710;9.622;2023-03-23T04:07:35;3.00;;;2.07;;
4642;SDS011;2334;48.710;9.622;2023-03-23T04:10:06;1.90;;;1.80;;
4642;SDS011;2334;48.710;9.622;2023-03-23T04:12:34;2.50;;;2.00;;
4642;SDS011;2334;48.710;9.622;2023-03-23T04:15:02;2.73;;;2.20;;
4642;SDS011;2334;48.710;9.622;2023-03-23T04:17:29;8.20;;;2.17;;
4642;SDS011;2334;48.710;9.622;2023-03-23T04:19:57;5.13;;;2.87;;
4642;SDS011;2334;48.710;9.622;2023-03-23T04:22:25;3.63;;;2.37;;
4642;SDS011;2334;48.710;9.622;2023-03-23T04:24:55;2.47;;;2.20;;
4642;SDS011;2334;48.710;9.622;2023-03-23T04:27:26;2.60;;;2.30;;
4642;SDS011;2334;48.710;9.622;2023-03-23T04:29:54;2.63;;;2.10;;
4642;SDS011;2334;48.710;9.622;2023-03-23T04:32:23;4.07;;;2.17;;
4642;SDS011;2334;48.710;9.622;2023-03-23T04:34:53;1.90;;;1.70;;
4642;SDS011;2334;48.710;9.622;2023-03-23T04:37:21;2.87;;;2.03;;
4642;SDS011;2334;48.710;9.622;2023-03-23T04:39:50;2.63;;;2.20;;
4642;SDS011;2334;48.710;9.622;2023-03-23T04:42:25;1.97;;;1.73;;
4642;SDS011;2334;48.710;9.622;2023-03-23T04:44:54;2.80;;;1.90;;
4642;SDS011;2334;48.710;9.622;2023-03-23T04:47:22;1.73;;;1.63;;
4642;SDS011;2334;48.710;9.622;2023-03-23T04:49:50;3.80;;;2.07;;
4642;SDS011;2334;48.710;9.622;2023-03-23T04:52:17;13.27;;;6.47;;
4642;SDS011;2334;48.710;9.622;2023-03-23T04:54:45;22.20;;;9.27;;
4642;SDS011;2334;48.710;9.622;2023-03-23T04:57:12;24.30;;;10.53;;
4642;SDS011;2334;48.710;9.622;2023-03-23T04:59:41;17.93;;;8.00;;
4642;SDS011;2334;48.710;9.622;2023-03-23T05:02:09;12.50;;;5.50;;
4642;SDS011;2334;48.710;9.622;2023-03-23T05:04:36;9.23;;;5.60;;
4642;SDS011;2334;48.710;9.622;2023-03-23T05:07:03;12.00;;;5.50;;
4642;SDS011;2334;48.710;9.622;2023-03-23T05:09:31;8.77;;;4.43;;
4642;SDS011;2334;48.710;9.622;2023-03-23T05:12:02;7.70;;;3.50;;
4642;SDS011;2334;48.710;9.622;2023-03-23T05:14:30;5.70;;;3.93;;
4642;SDS011;2334;48.710;9.622;2023-03-23T05:16:58;4.07;;;2.90;;
4642;SDS011;2334;48.710;9.622;2023-03-23T05:19:25;6.20;;;3.03;;
4642;SDS011;2334;48.710;9.622;2023-03-23T05:21:53;3.57;;;2.63;;
4642;SDS011;2334;48.710;9.622;2023-03-23T05:24:19;4.33;;;2.60;;
4642;SDS011;2334;48.710;9.622;2023-03-23T05:26:46;3.30;;;2.73;;
4642;SDS011;2334;48.710;9.622;2023-03-23T05:29:17;13.30;;;2.50;;
4642;SDS011;2334;48.710;9.622;2023-03-23T05:31:44;3.93;;;2.37;;
4642;SDS011;2334;48.710;9.622;2023-03-23T05:34:14;5.60;;;3.23;;
4642;SDS011;2334;48.710;9.622;2023-03-23T05:36:41;3.93;;;2.70;;
4642;SDS011;2334;48.710;9.622;2023-03-23T05:39:08;5.23;;;2.30;;
4642;SDS011;2334;48.710;9.622;2023-03-23T05:41:36;3.77;;;2.60;;
4642;SDS011;2334;48.710;9.622;2023-03-23T05:44:03;2.97;;;2.20;;
4642;SDS011;2334;48.710;9.622;2023-03-23T05:46:30;11.17;;;2.40;;
4642;SDS011;2334;48.710;9.622;2023-03-23T05:48:57;5.10;;;2.30;;
4642;SDS011;2334;48.710;9.622;2023-03-23T05:51:26;2.53;;;2.33;;
4642;SDS011;2334;48.710;9.622;2023-03-23T05:53:53;4.73;;;2.27;;
4642;SDS011;2334;48.710;9.622;2023-03-23T05:56:20;2.43;;;2.00;;
4642;SDS011;2334;48.710;9.622;2023-03-23T05:58:47;2.30;;;2.00;;
4642;SDS011;2334;48.710;9.622;2023-03-23T06:01:14;1.70;;;1.60;;
4642;SDS011;2334;48.710;9.622;2023-03-23T06:03:41;2.07;;;1.63;;
4642;SDS011;2334;48.710;9.622;2023-03-23T06:06:09;1.73;;;1.63;;
4642;SDS011;2334;48.710;9.622;2023-03-23T06:08:38;3.47;;;1.77;;
4642;SDS011;2334;48.710;9.622;2023-03-23T06:11:04;2.97;;;1.60;;
4642;SDS011;2334;48.710;9.622;2023-03-23T06:13:32;1.70;;;1.60;;
4642;SDS011;2334;48.710;9.622;2023-03-23T06:15:58;4.93;;;1.60;;
4642;SDS011;2334;48.710;9.622;2023-03-23T06:18:26;1.80;;;1.70;;
4642;SDS011;2334;48.710;9.622;2023-03-23T06:20:53;4.00;;;2.80;;
4642;SDS011;2334;48.710;9.622;2023-03-23T06:23:20;4.77;;;2.40;;
4642;SDS011;2334;48.710;9.622;2023-03-23T06:25:49;3.67;;;2.33;;
4642;SDS011;2334;48.710;9.622;2023-03-23T06:28:16;3.17;;;2.27;;
4642;SDS011;2334;48.710;9.622;2023-03-23T06:30:43;1.93;;;1.60;;
4642;SDS011;2334;48.710;9.622;2023-03-23T06:33:10;3.23;;;2.47;;
4642;SDS011;2334;48.710;9.622;2023-03-23T06:35:37;2.23;;;1.80;;
4642;SDS011;2334;48.710;9.622;2023-03-23T06:38:04;4.17;;;2.43;;
4642;SDS011;2334;48.710;9.622;2023-03-23T06:40:31;6.53;;;3.10;;
4642;SDS011;2334;48.710;9.622;2023-03-23T06:42:59;3.87;;;2.70;;
4642;SDS011;2334;48.710;9.622;2023-03-23T06:45:26;5.20;;;2.47;;
4642;SDS011;2334;48.710;9.622;2023-03-23T06:47:53;3.30;;;2.30;;
4642;SDS011;2334;48.710;9.622;2023-03-23T06:50:20;4.10;;;2.43;;
4642;SDS011;2334;48.710;9.622;2023-03-23T06:52:47;2.40;;;2.20;;
4642;SDS011;2334;48.710;9.622;2023-03-23T06:55:15;2.63;;;2.43;;
4642;SDS011;2334;48.710;9.622;2023-03-23T06:57:42;3.57;;;2.57;;
4642;SDS011;2334;48.710;9.622;2023-03-23T07:00:11;7.10;;;2.70;;
4642;SDS011;2334;48.710;9.622;2023-03-23T07:02:40;6.03;;;2.20;;
4642;SDS011;2334;48.710;9.622;2023-03-23T07:05:07;6.37;;;2.63;;
4642;SDS011;2334;48.710;9.622;2023-03-23T07:07:35;7.73;;;2.30;;
4642;SDS011;2334;48.710;9.622;2023-03-23T07:10:02;3.00;;;2.60;;
4642;SDS011;2334;48.710;9.622;2023-03-23T07:12:29;9.63;;;3.10;;
4642;SDS011;2334;48.710;9.622;2023-03-23T07:14:56;2.70;;;2.50;;
4642;SDS011;2334;48.710;9.622;2023-03-23T07:17:24;4.00;;;3.00;;
4642;SDS011;2334;48.710;9.622;2023-03-23T07:19:51;5.73;;;2.20;;
4642;SDS011;2334;48.710;9.622;2023-03-23T07:22:18;2.10;;;2.00;;
4642;SDS011;2334;48.710;9.622;2023-03-23T07:24:45;2.13;;;1.90;;
4642;SDS011;2334;48.710;9.622;2023-03-23T07:27:12;4.40;;;2.60;;
4642;SDS011;2334;48.710;9.622;2023-03-23T07:29:40;3.00;;;2.70;;
4642;SDS011;2334;48.710;9.622;2023-03-23T07:32:08;4.43;;;2.97;;
4642;SDS011;2334;48.710;9.622;2023-03-23T07:34:38;5.60;;;3.03;;
4642;SDS011;2334;48.710;9.622;2023-03-23T07:37:06;6.37;;;3.40;;
4642;SDS011;2334;48.710;9.622;2023-03-23T07:39:35;4.03;;;3.60;;
4642;SDS011;2334;48.710;9.622;2023-03-23T07:42:02;8.10;;;3.80;;
4642;SDS011;2334;48.710;9.622;2023-03-23T07:44:29;5.07;;;3.00;;
4642;SDS011;2334;48.710;9.622;2023-03-23T07:46:56;7.77;;;4.00;;
4642;SDS011;2334;48.710;9.622;2023-03-23T07:49:23;16.97;;;4.07;;
4642;SDS011;2334;48.710;9.622;2023-03-23T07:51:53;4.40;;;3.73;;
4642;SDS011;2334;48.710;9.622;2023-03-23T07:54:20;5.57;;;3.33;;
4642;SDS011;2334;48.710;9.622;2023-03-23T07:56:47;6.27;;;3.33;;
4642;SDS011;2334;48.710;9.622;2023-03-23T07:59:14;3.50;;;3.00;;
4642;SDS011;2334;48.710;9.622;2023-03-23T08:01:42;6.10;;;3.50;;
4642;SDS011;2334;48.710;9.622;2023-03-23T08:04:09;9.13;;;3.70;;
4642;SDS011;2334;48.710;9.622;2023-03-23T08:06:35;4.43;;;3.47;;
4642;SDS011;2334;48.710;9.622;2023-03-23T08:09:06;3.70;;;3.10;;
4642;SDS011;2334;48.710;9.622;2023-03-23T08:11:33;5.00;;;3.30;;
4642;SDS011;2334;48.710;9.622;2023-03-23T08:14:02;8.90;;;4.20;;
4642;SDS011;2334;48.710;9.622;2023-03-23T08:16:30;8.17;;;3.40;;
4642;SDS011;2334;48.710;9.622;2023-03-23T08:18:57;6.30;;;3.90;;
4642;SDS011;2334;48.710;9.622;2023-03-23T08:21:25;6.77;;;3.93;;
4642;SDS011;2334;48.710;9.622;2023-03-23T08:23:52;4.23;;;3.43;;
4642;SDS011;2334;48.710;9.622;2023-03-23T08:26:21;6.20;;;3.90;;
4642;SDS011;2334;48.710;9.622;2023-03-23T08:28:48;7.50;;;3.80;;
4642;SDS011;2334;48.710;9.622;2023-03-23T08:31:15;14.50;;;4.57;;
4642;SDS011;2334;48.710;9.622;2023-03-23T08:33:42;6.40;;;4.20;;
4642;SDS011;2334;48.710;9.622;2023-03-23T08:36:09;11.23;;;4.60;;
4642;SDS011;2334;48.710;9.622;2023-03-23T08:38:36;8.77;;;4.87;;
4642;SDS011;2334;48.710;9.622;2023-03-23T08:41:04;7.33;;;4.10;;
4642;SDS011;2334;48.710;9.622;2023-03-23T08:43:34;3.93;;;3.53;;
4642;SDS011;2334;48.710;9.622;2023-03-23T08:46:01;6.83;;;4.30;;
4642;SDS011;2334;48.710;9.622;2023-03-23T08:48:34;3.37;;;3.00;;
4642;SDS011;2334;48.710;9.622;2023-03-23T08:51:01;4.10;;;3.20;;
4642;SDS011;2334;48.710;9.622;2023-03-23T08:53:28;2.70;;;2.50;;
4642;SDS011;2334;48.710;9.622;2023-03-23T08:55:56;3.03;;;2.83;;
4642;SDS011;2334;48.710;9.622;2023-03-23T08:58:28;3.10;;;2.27;;
4642;SDS011;2334;48.710;9.622;2023-03-23T09:00:57;3.27;;;2.07;;
4642;SDS011;2334;48.710;9.622;2023-03-23T09:03:24;2.70;;;2.50;;
4642;SDS011;2334;48.710;9.622;2023-03-23T09:05:51;1.60;;;1.50;;
4642;SDS011;2334;48.710;9.622;2023-03-23T09:08:18;3.20;;;1.53;;
4642;SDS011;2334;48.710;9.622;2023-03-23T09:10:45;7.90;;;1.90;;
4642;SDS011;2334;48.710;9.622;2023-03-23T09:13:14;1.43;;;1.17;;
4642;SDS011;2334;48.710;9.622;2023-03-23T09:15:41;1.63;;;1.20;;
4642;SDS011;2334;48.710;9.622;2023-03-23T09:18:09;2.53;;;2.00;;
4642;SDS011;2334;48.710;9.622;2023-03-23T09:20:37;2.57;;;1.10;;
4642;SDS011;2334;48.710;9.622;2023-03-23T09:23:05;2.53;;;1.17;;
4642;SDS011;2334;48.710;9.622;2023-03-23T09:25:31;1.97;;;1.37;;
4642;SDS011;2334;48.710;9.622;2023-03-23T09:27:58;1.20;;;1.03;;
4642;SDS011;2334;48.710;9.622;2023-03-23T09:30:26;1.30;;;1.10;;
4642;SDS011;2334;48.710;9.622;2023-03-23T09:32:55;1.43;;;1.10;;
4642;SDS011;2334;48.710;9.622;2023-03-23T09:35:24;1.00;;;1.00;;
4642;SDS011;2334;48.710;9.622;2023-03-23T09:37:52;1.40;;;1.30;;
4642;SDS011;2334;48.710;9.622;2023-03-23T09:40:21;2.03;;;1.30;;
4642;SDS011;2334;48.710;9.622;2023-03-23T09:43:02;1.50;;;1.40;;
4642;SDS011;2334;48.710;9.622;2023-03-23T09:45:43;1.70;;;1.20;;
4642;SDS011;2334;48.710;9.622;2023-03-23T09:51:11;1.80;;;1.60;;
4642;SDS011;2334;48.710;9.622;2023-03-23T09:53:46;1.67;;;1.57;;
4642;SDS011;2334;48.710;9.622;2023-03-23T09:56:16;10.33;;;3.00;;
4642;SDS011;2334;48.710;9.622;2023-03-23T09:58:46;1.83;;;1.30;;
4642;SDS011;2334;48.710;9.622;2023-03-23T10:01:19;1.33;;;1.23;;
4642;SDS011;2334;48.710;9.622;2023-03-23T10:03:48;3.40;;;3.03;;
4642;SDS011;2334;48.710;9.622;2023-03-23T10:06:20;1.60;;;1.50;;
4642;SDS011;2334;48.710;9.622;2023-03-23T10:08:49;1.47;;;1.33;;
4642;SDS011;2334;48.710;9.622;2023-03-23T10:11:22;1.50;;;1.40;;
4642;SDS011;2334;48.710;9.622;2023-03-23T10:14:01;2.07;;;1.50;;
4642;SDS011;2334;48.710;9.622;2023-03-23T10:16:40;1.87;;;1.40;;
4642;SDS011;2334;48.710;9.622;2023-03-23T10:19:16;1.30;;;1.20;;
4642;SDS011;2334;48.710;9.622;2023-03-23T10:21:50;2.77;;;1.23;;
4642;SDS011;2334;48.710;9.622;2023-03-23T10:24:21;2.10;;;1.20;;
4642;SDS011;2334;48.710;9.622;2023-03-23T10:26:53;1.30;;;1.07;;
4642;SDS011;2334;48.710;9.622;2023-03-23T10:29:27;1.03;;;1.03;;
4642;SDS011;2334;48.710;9.622;2023-03-23T10:31:58;1.83;;;1.73;;
4642;SDS011;2334;48.710;9.622;2023-03-23T10:34:30;2.40;;;1.37;;
4642;SDS011;2334;48.710;9.622;2023-03-23T10:37:03;2.30;;;1.50;;
4642;SDS011;2334;48.710;9.622;2023-03-23T10:39:37;1.37;;;1.20;;
4642;SDS011;2334;48.710;9.622;2023-03-23T10:42:09;1.30;;;1.20;;
4642;SDS011;2334;48.710;9.622;2023-03-23T10:44:36;3.50;;;1.90;;
4642;SDS011;2334;48.710;9.622;2023-03-23T10:47:04;4.50;;;1.07;;
4642;SDS011;2334;48.710;9.622;2023-03-23T10:49:34;1.67;;;1.50;;
4642;SDS011;2334;48.710;9.622;2023-03-23T10:52:11;1.60;;;1.47;;
4642;SDS011;2334;48.710;9.622;2023-03-23T10:54:48;3.23;;;2.40;;
4642;SDS011;2334;48.710;9.622;2023-03-23T10:57:20;3.93;;;2.53;;
4642;SDS011;2334;48.710;9.622;2023-03-23T10:59:49;3.40;;;2.90;;
4642;SDS011;2334;48.710;9.622;2023-03-23T11:02:17;27.67;;;6.50;;
4642;SDS011;2334;48.710;9.622;2023-03-23T11:04:47;6.20;;;3.23;;
4642;SDS011;2334;48.710;9.622;2023-03-23T11:07:25;4.20;;;3.80;;
4642;SDS011;2334;48.710;9.622;2023-03-23T11:09:55;7.70;;;3.60;;
4642;SDS011;2334;48.710;9.622;2023-03-23T11:12:23;12.80;;;7.40;;
4642;SDS011;2334;48.710;9.622;2023-03-23T11:14:51;11.70;;;4.73;;
4642;SDS011;2334;48.710;9.622;2023-03-23T11:17:20;2.83;;;1.30;;
4642;SDS011;2334;48.710;9.622;2023-03-23T11:19:49;6.57;;;3.60;;
4642;SDS011;2334;48.710;9.622;2023-03-23T11:22:20;7.00;;;4.53;;
4642;SDS011;2334;48.710;9.622;2023-03-23T11:24:53;14.77;;;7.07;;
4642;SDS011;2334;48.710;9.622;2023-03-23T11:27:21;1.70;;;1.60;;
4642;SDS011;2334;48.710;9.622;2023-03-23T11:29:51;2.60;;;1.17;;
4642;SDS011;2334;48.710;9.622;2023-03-23T11:32:22;5.07;;;1.93;;
4642;SDS011;2334;48.710;9.622;2023-03-23T11:34:54;1.87;;;1.60;;
4642;SDS011;2334;48.710;9.622;2023-03-23T11:37:25;5.60;;;1.70;;
4642;SDS011;2334;48.710;9.622;2023-03-23T11:39:58;1.40;;;1.30;;
4642;SDS011;2334;48.710;9.622;2023-03-23T11:42:34;7.43;;;2.93;;
4642;SDS011;2334;48.710;9.622;2023-03-23T11:45:13;15.87;;;6.57;;
4642;SDS011;2334;48.710;9.622;2023-03-23T11:47:43;15.60;;;6.20;;
4642;SDS011;2334;48.710;9.622;2023-03-23T11:50:20;15.70;;;5.53;;
4642;SDS011;2334;48.710;9.622;2023-03-23T11:52:51;5.27;;;2.33;;
4642;SDS011;2334;48.710;9.622;2023-03-23T11:55:25;14.13;;;6.70;;
4642;SDS011;2334;48.710;9.622;2023-03-23T11:57:54;1.63;;;1.53;;
4642;SDS011;2334;48.710;9.622;2023-03-23T12:00:26;2.70;;;1.30;;
4642;SDS011;2334;48.710;9.622;2023-03-23T12:02:55;1.27;;;1.17;;
4642;SDS011;2334;48.710;9.622;2023-03-23T12:05:30;1.80;;;1.10;;
4642;SDS011;2334;48.710;9.622;2023-03-23T12:11:13;2.30;;;1.27;;
4642;SDS011;2334;48.710;9.622;2023-03-23T12:13:50;2.10;;;1.40;;
4642;SDS011;2334;48.710;9.622;2023-03-23T12:16:32;2.50;;;1.53;;
4642;SDS011;2334;48.710;9.622;2023-03-23T12:19:09;2.60;;;1.90;;
4642;SDS011;2334;48.710;9.622;2023-03-23T12:21:45;1.30;;;1.00;;
4642;SDS011;2334;48.710;9.622;2023-03-23T12:24:21;5.73;;;1.80;;
4642;SDS011;2334;48.710;9.622;2023-03-23T12:27:02;6.00;;;1.40;;
4642;SDS011;2334;48.710;9.622;2023-03-23T12:29:37;2.60;;;1.53;;
4642;SDS011;2334;48.710;9.622;2023-03-23T12:32:25;1.70;;;1.60;;
4642;SDS011;2334;48.710;9.622;2023-03-23T12:35:12;1.90;;;1.27;;
4642;SDS011;2334;48.710;9.622;2023-03-23T12:38:03;2.80;;;1.30;;
4642;SDS011;2334;48.710;9.622;2023-03-23T12:40:41;3.47;;;1.50;;
4642;SDS011;2334;48.710;9.622;2023-03-23T12:43:28;3.47;;;1.53;;
4642;SDS011;2334;48.710;9.622;2023-03-23T12:48:59;1.00;;;1.00;;
4642;SDS011;2334;48.710;9.622;2023-03-23T12:51:33;1.77;;;1.50;;
4642;SDS011;2334;48.710;9.622;2023-03-23T12:54:07;2.20;;;1.47;;
4642;SDS011;2334;48.710;9.622;2023-03-23T12:56:39;1.80;;;1.10;;
4642;SDS011;2334;48.710;9.622;2023-03-23T12:59:13;1.43;;;1.10;;
4642;SDS011;2334;48.710;9.622;2023-03-23T13:01:45;1.00;;;1.00;;
4642;SDS011;2334;48.710;9.622;2023-03-23T13:04:15;1.87;;;1.00;;
4642;SDS011;2334;48.710;9.622;2023-03-23T13:06:48;2.30;;;1.20;;
4642;SDS011;2334;48.710;9.622;2023-03-23T13:09:16;1.43;;;1.10;;
4642;SDS011;2334;48.710;9.622;2023-03-23T13:11:47;3.20;;;1.33;;
4642;SDS011;2334;48.710;9.622;2023-03-23T13:14:21;1.50;;;1.40;;
4642;SDS011;2334;48.710;9.622;2023-03-23T13:16:58;3.00;;;1.27;;
4642;SDS011;2334;48.710;9.622;2023-03-23T13:19:35;1.60;;;1.50;;
4642;SDS011;2334;48.710;9.622;2023-03-23T13:22:07;1.47;;;1.37;;
4642;SDS011;2334;48.710;9.622;2023-03-23T13:24:42;4.57;;;1.30;;
4642;SDS011;2334;48.710;9.622;2023-03-23T13:27:11;1.27;;;0.87;;
4642;SDS011;2334;48.710;9.622;2023-03-23T13:29:44;2.60;;;0.83;;
4642;SDS011;2334;48.710;9.622;2023-03-23T13:32:12;4.20;;;1.30;;
4642;SDS011;2334;48.710;9.622;2023-03-23T13:34:43;1.77;;;1.10;;
4642;SDS011;2334;48.710;9.622;2023-03-23T13:37:21;1.10;;;1.10;;
4642;SDS011;2334;48.710;9.622;2023-03-23T13:39:51;1.00;;;1.00;;
4642;SDS011;2334;48.710;9.622;2023-03-23T13:42:22;0.80;;;0.80;;
4642;SDS011;2334;48.710;9.622;2023-03-23T13:45:18;2.27;;;1.53;;
4642;SDS011;2334;48.710;9.622;2023-03-23T13:47:47;1.37;;;1.07;;
4642;SDS011;2334;48.710;9.622;2023-03-23T13:50:24;1.07;;;1.00;;
4642;SDS011;2334;48.710;9.622;2023-03-23T13:52:55;1.43;;;1.13;;
4642;SDS011;2334;48.710;9.622;2023-03-23T13:58:21;1.80;;;1.10;;
4642;SDS011;2334;48.710;9.622;2023-03-23T14:01:00;1.47;;;1.13;;
4642;SDS011;2334;48.710;9.622;2023-03-23T14:03:38;1.97;;;1.20;;
4642;SDS011;2334;48.710;9.622;2023-03-23T14:06:07;1.20;;;1.10;;
4642;SDS011;2334;48.710;9.622;2023-03-23T14:08:42;1.00;;;0.90;;
4642;SDS011;2334;48.710;9.622;2023-03-23T14:11:12;2.60;;;2.00;;
4642;SDS011;2334;48.710;9.622;2023-03-23T14:13:43;1.50;;;1.40;;
4642;SDS011;2334;48.710;9.622;2023-03-23T14:16:17;5.50;;;3.43;;
4642;SDS011;2334;48.710;9.622;2023-03-23T14:18:53;3.17;;;2.60;;
4642;SDS011;2334;48.710;9.622;2023-03-23T14:21:22;4.97;;;2.77;;
4642;SDS011;2334;48.710;9.622;2023-03-23T14:23:59;2.47;;;1.30;;
4642;SDS011;2334;48.710;9.622;2023-03-23T14:26:27;2.20;;;1.67;;
4642;SDS011;2334;48.710;9.622;2023-03-23T14:28:54;1.90;;;1.70;;
4642;SDS011;2334;48.710;9.622;2023-03-23T14:31:25;1.50;;;1.40;;
4642;SDS011;2334;48.710;9.622;2023-03-23T14:33:54;3.03;;;2.73;;
4642;SDS011;2334;48.710;9.622;2023-03-23T14:36:22;2.60;;;1.30;;
4642;SDS011;2334;48.710;9.622;2023-03-23T14:38:56;3.47;;;2.23;;
4642;SDS011;2334;48.710;9.622;2023-03-23T14:41:29;3.60;;;1.50;;
4642;SDS011;2334;48.710;9.622;2023-03-23T14:43:58;1.33;;;1.30;;
4642;SDS011;2334;48.710;9.622;2023-03-23T14:46:28;1.50;;;1.40;;
4642;SDS011;2334;48.710;9.622;2023-03-23T14:48:56;2.40;;;1.50;;
4642;SDS011;2334;48.710;9.622;2023-03-23T14:51:26;7.40;;;2.20;;
4642;SDS011;2334;48.710;9.622;2023-03-23T14:53:53;1.43;;;1.30;;
4642;SDS011;2334;48.710;9.622;2023-03-23T14:56:21;1.60;;;1.30;;
4642;SDS011;2334;48.710;9.622;2023-03-23T14:58:53;3.33;;;1.50;;
4642;SDS011;2334;48.710;9.622;2023-03-23T15:01:22;1.93;;;1.50;;
4642;SDS011;2334;48.710;9.622;2023-03-23T15:03:55;2.60;;;1.53;;
4642;SDS011;2334;48.710;9.622;2023-03-23T15:06:25;4.17;;;1.73;;
4642;SDS011;2334;48.710;9.622;2023-03-23T15:08:55;2.33;;;1.30;;
4642;SDS011;2334;48.710;9.622;2023-03-23T15:11:27;1.43;;;1.03;;
4642;SDS011;2334;48.710;9.622;2023-03-23T15:13:56;3.37;;;2.33;;
4642;SDS011;2334;48.710;9.622;2023-03-23T15:16:28;3.23;;;1.70;;
4642;SDS011;2334;48.710;9.622;2023-03-23T15:18:58;1.97;;;1.70;;
4642;SDS011;2334;48.710;9.622;2023-03-23T15:21:28;1.67;;;1.50;;
4642;SDS011;2334;48.710;9.622;2023-03-23T15:23:56;2.57;;;1.70;;
4642;SDS011;2334;48.710;9.622;2023-03-23T15:26:29;1.30;;;1.20;;
4642;SDS011;2334;48.710;9.622;2023-03-23T15:29:00;1.60;;;1.50;;
4642;SDS011;2334;48.710;9.622;2023-03-23T15:31:38;1.63;;;1.30;;
4642;SDS011;2334;48.710;9.622;2023-03-23T15:34:12;5.03;;;1.50;;
4642;SDS011;2334;48.710;9.622;2023-03-23T15:36:43;2.43;;;1.63;;
4642;SDS011;2334;48.710;9.622;2023-03-23T15:39:11;2.80;;;1.63;;
4642;SDS011;2334;48.710;9.622;2023-03-23T15:41:45;3.20;;;1.30;;
4642;SDS011;2334;48.710;9.622;2023-03-23T15:44:20;5.13;;;1.70;;
4642;SDS011;2334;48.710;9.622;2023-03-23T15:46:50;2.87;;;1.47;;
4642;SDS011;2334;48.710;9.622;2023-03-23T15:49:20;2.37;;;2.20;;